Terminal Aerodrome Forecast
Issued by NWS New Orleans/Baton Rouge, LA

Home | Current Version | Previous Version | Text Only | Print | Product List | Glossary On
Versions: 1 2 3 4 5 6 7 8 9 10 11
656
FTUS44 KLIX 082320
TAFBTR
TAF
KBTR 082320Z 0900/0924 30014G20KT P6SM SKC
     FM090100 30012KT P6SM SKC
     FM090400 29008KT P6SM SKC
     FM091700 30012KT P6SM SKC=

USA.gov is the U.S. government's official web portal to all federal, state and local government web resources and services.